Ignacio, Colorado
Current Conditions -  °F | °C
As of 6:53 AM on Saturday 25 Oct 2014 (Local Time) from KDRO Reporting Station
Clear Clear  
Wind Chill: 30°   Ceiling: Unl
Heat Index: 36°   Visibility: 10mi
Dew Point: 30°   Wind: 7mph
Humidity: 79%   Direction: 10°N
Pressure: 30.36"   Gusts: NA
Location:  37.12°N, 107.63°W
Report Text: KDRO 251253Z AUTO 01006KT 10SM CLR 02/M01 A3036 RMK AO2 SLP248 T00221011
Loading
Personal Weather Stations






























Interactive Weather Map
Tropical Storm Tracking
New forecast layout! Learn more

10-Day Weather Forecast

Advertisements
Track Severe Weather on mobile